Time,TemperatureF,DewpointF,PressureIn,WindDirection,WindDirectionDegrees,WindSpeedMPH,WindSpeedGustMPH,Humidity,HourlyPrecipIn,Conditions,Clouds,dailyrainin,SoftwareType,DateUTC
2013-01-12 00:00:00,47.3,44.0,29.70,WSW,248,1.6,2.9,88,0.00,,,0.68,WUHU216HW,2013-01-12 05:00:00,
2013-01-12 00:01:00,47.5,44.5,29.71,South,180,1.6,2.5,89,0.00,,,0.00,WUHU216HW,2013-01-12 05:01:00,
2013-01-12 00:06:00,47.3,44.4,29.70,WNW,293,0.0,3.6,89,0.00,,,0.00,WUHU216HW,2013-01-12 05:06:00,
2013-01-12 00:11:00,47.2,44.2,29.69,WSW,248,1.1,3.8,89,0.00,,,0.00,WUHU216HW,2013-01-12 05:11:00,
2013-01-12 00:16:00,47.2,44.2,29.69,SSW,203,1.1,3.8,89,0.00,,,0.00,WUHU216HW,2013-01-12 05:16:00,
2013-01-12 00:21:00,47.2,44.2,29.70,West,270,1.3,3.1,89,0.00,,,0.00,WUHU216HW,2013-01-12 05:21:00,
2013-01-12 00:26:00,47.0,44.0,29.69,WSW,248,1.3,3.1,89,0.00,,,0.00,WUHU216HW,2013-01-12 05:26:00,
2013-01-12 00:31:00,47.0,44.0,29.70,SW,225,1.1,2.0,89,0.00,,,0.00,WUHU216HW,2013-01-12 05:31:00,
2013-01-12 00:36:00,47.0,44.0,29.69,SSE,158,1.1,2.2,89,0.00,,,0.00,WUHU216HW,2013-01-12 05:36:00,
2013-01-12 00:41:00,47.0,44.0,29.69,SSE,158,1.6,2.2,89,0.00,,,0.00,WUHU216HW,2013-01-12 05:41:00,
2013-01-12 00:46:00,46.8,43.8,29.69,WSW,248,0.9,1.8,89,0.00,,,0.00,WUHU216HW,2013-01-12 05:46:00,
2013-01-12 00:51:00,46.8,43.8,29.69,SW,225,2.0,2.0,89,0.00,,,0.00,WUHU216HW,2013-01-12 05:51:00,
2013-01-12 00:56:00,46.8,43.8,29.69,SE,135,0.9,2.5,89,0.00,,,0.00,WUHU216HW,2013-01-12 05:56:00,
2013-01-12 01:01:00,46.8,43.8,29.69,SSW,203,1.8,2.7,89,0.00,,,0.00,WUHU216HW,2013-01-12 06:01:00,
2013-01-12 01:06:00,46.6,43.9,29.69,West,270,2.2,2.7,90,0.00,,,0.00,WUHU216HW,2013-01-12 06:06:00,
2013-01-12 01:11:00,46.8,44.1,29.68,SW,225,0.9,2.2,90,0.00,,,0.00,WUHU216HW,2013-01-12 06:11:00,
2013-01-12 01:16:00,47.0,44.3,29.69,South,180,1.8,4.7,90,0.00,,,0.00,WUHU216HW,2013-01-12 06:16:00,
2013-01-12 01:21:00,47.0,44.3,29.69,SW,225,2.0,4.7,90,0.00,,,0.00,WUHU216HW,2013-01-12 06:21:00,
2013-01-12 01:26:00,47.0,44.3,29.69,SW,225,1.6,2.9,90,0.00,,,0.00,WUHU216HW,2013-01-12 06:26:00,
2013-01-12 01:31:00,47.0,44.3,29.69,SSW,203,1.8,3.1,90,0.00,,,0.00,WUHU216HW,2013-01-12 06:31:00,
2013-01-12 01:36:00,47.0,44.3,29.69,SSW,203,1.1,3.1,90,0.00,,,0.00,WUHU216HW,2013-01-12 06:36:00,
2013-01-12 01:41:00,47.2,44.5,29.69,SW,225,4.0,6.0,90,0.00,,,0.00,WUHU216HW,2013-01-12 06:41:00,
2013-01-12 01:46:00,47.5,44.8,29.69,SW,225,1.3,6.0,90,0.00,,,0.00,WUHU216HW,2013-01-12 06:46:00,
2013-01-12 01:51:00,47.7,44.6,29.69,WSW,248,5.6,5.6,89,0.00,,,0.00,WUHU216HW,2013-01-12 06:51:00,
2013-01-12 01:56:00,47.9,44.8,29.69,SW,225,3.4,5.6,89,0.00,,,0.00,WUHU216HW,2013-01-12 06:56:00,
2013-01-12 02:01:00,48.1,45.0,29.69,WSW,248,2.5,4.3,89,0.00,,,0.00,WUHU216HW,2013-01-12 07:01:00,
2013-01-12 02:06:00,48.4,45.1,29.69,WSW,248,2.5,4.3,88,0.00,,,0.00,WUHU216HW,2013-01-12 07:06:00,
2013-01-12 02:11:00,48.4,45.1,29.69,WSW,248,0.9,6.0,88,0.00,,,0.00,WUHU216HW,2013-01-12 07:11:00,
2013-01-12 02:16:00,48.6,45.2,29.69,West,270,1.8,6.0,88,0.00,,,0.00,WUHU216HW,2013-01-12 07:16:00,
2013-01-12 02:21:00,48.6,45.2,29.69,SSW,203,3.4,3.8,88,0.00,,,0.00,WUHU216HW,2013-01-12 07:21:00,
2013-01-12 02:26:00,48.6,45.2,29.70,WSW,248,2.5,4.7,88,0.00,,,0.00,WUHU216HW,2013-01-12 07:26:00,
2013-01-12 02:31:00,48.8,45.1,29.70,WSW,248,3.8,5.6,87,0.00,,,0.00,WUHU216HW,2013-01-12 07:31:00,
2013-01-12 02:36:00,48.6,44.9,29.70,WSW,248,3.1,5.6,87,0.00,,,0.00,WUHU216HW,2013-01-12 07:36:00,
2013-01-12 02:41:00,48.8,45.1,29.70,WSW,248,1.8,5.4,87,0.00,,,0.00,WUHU216HW,2013-01-12 07:41:00,
2013-01-12 02:46:00,48.8,45.1,29.70,WSW,248,1.8,5.4,87,0.00,,,0.00,WUHU216HW,2013-01-12 07:46:00,
2013-01-12 02:51:00,49.0,45.3,29.70,West,270,2.9,2.9,87,0.00,,,0.00,WUHU216HW,2013-01-12 07:51:00,
2013-01-12 02:56:00,49.1,45.1,29.70,WNW,293,1.1,3.8,86,0.00,,,0.00,WUHU216HW,2013-01-12 07:56:00,
2013-01-12 03:01:00,49.1,45.1,29.71,WSW,248,3.1,3.8,86,0.00,,,0.00,WUHU216HW,2013-01-12 08:01:00,
2013-01-12 03:06:00,49.3,45.3,29.71,SW,225,3.8,5.4,86,0.00,,,0.00,WUHU216HW,2013-01-12 08:06:00,
2013-01-12 03:11:00,49.3,45.3,29.71,SSW,203,2.5,5.4,86,0.00,,,0.00,WUHU216HW,2013-01-12 08:11:00,
2013-01-12 03:16:00,49.3,45.3,29.71,WSW,248,1.8,3.4,86,0.00,,,0.00,WUHU216HW,2013-01-12 08:16:00,
2013-01-12 03:21:00,49.1,45.1,29.71,WSW,248,6.0,6.3,86,0.00,,,0.00,WUHU216HW,2013-01-12 08:21:00,
2013-01-12 03:26:00,49.1,45.1,29.71,West,270,4.9,6.3,86,0.00,,,0.00,WUHU216HW,2013-01-12 08:26:00,
2013-01-12 03:31:00,49.1,44.8,29.71,SW,225,3.4,6.0,85,0.00,,,0.00,WUHU216HW,2013-01-12 08:31:00,
2013-01-12 03:36:00,49.1,44.8,29.71,SSW,203,1.6,6.0,85,0.00,,,0.00,WUHU216HW,2013-01-12 08:36:00,
2013-01-12 03:41:00,49.1,44.8,29.71,SW,225,4.3,4.3,85,0.00,,,0.00,WUHU216HW,2013-01-12 08:41:00,
2013-01-12 03:46:00,49.1,44.8,29.71,SW,225,2.7,4.3,85,0.00,,,0.00,WUHU216HW,2013-01-12 08:46:00,
2013-01-12 03:51:00,49.0,44.7,29.71,WSW,248,3.8,3.8,85,0.00,,,0.00,WUHU216HW,2013-01-12 08:51:00,
2013-01-12 03:56:00,49.0,44.7,29.71,SSE,158,2.5,4.7,85,0.00,,,0.00,WUHU216HW,2013-01-12 08:56:00,
2013-01-12 04:01:00,49.0,44.9,29.71,WSW,248,1.8,4.7,86,0.00,,,0.00,WUHU216HW,2013-01-12 09:01:00,
2013-01-12 04:06:00,49.1,44.8,29.72,SW,225,1.1,4.5,85,0.00,,,0.00,WUHU216HW,2013-01-12 09:06:00,
2013-01-12 04:11:00,49.0,44.7,29.71,SW,225,1.8,4.3,85,0.00,,,0.00,WUHU216HW,2013-01-12 09:11:00,
2013-01-12 04:16:00,48.8,44.5,29.71,SW,225,3.4,3.6,85,0.00,,,0.00,WUHU216HW,2013-01-12 09:16:00,
2013-01-12 04:21:00,48.6,44.3,29.71,WSW,248,2.7,3.6,85,0.00,,,0.00,WUHU216HW,2013-01-12 09:21:00,
2013-01-12 04:26:00,48.4,44.4,29.71,SW,225,1.3,3.4,86,0.00,,,0.00,WUHU216HW,2013-01-12 09:26:00,
2013-01-12 04:31:00,48.2,44.3,29.71,SW,225,3.8,4.5,86,0.00,,,0.00,WUHU216HW,2013-01-12 09:31:00,
2013-01-12 04:36:00,48.2,44.3,29.71,WSW,248,1.8,4.5,86,0.00,,,0.00,WUHU216HW,2013-01-12 09:36:00,
2013-01-12 04:41:00,48.1,44.1,29.71,WSW,248,1.8,2.9,86,0.00,,,0.00,WUHU216HW,2013-01-12 09:41:00,
2013-01-12 04:46:00,47.9,43.9,29.71,SW,225,4.0,5.4,86,0.00,,,0.00,WUHU216HW,2013-01-12 09:46:00,
2013-01-12 04:51:00,48.1,44.4,29.71,WSW,248,3.1,5.4,87,0.00,,,0.00,WUHU216HW,2013-01-12 09:51:00,
2013-01-12 04:56:00,48.1,44.1,29.71,SW,225,4.7,4.7,86,0.00,,,0.00,WUHU216HW,2013-01-12 09:56:00,
2013-01-12 05:01:00,48.2,44.3,29.71,SW,225,1.8,5.4,86,0.00,,,0.00,WUHU216HW,2013-01-12 10:01:00,
2013-01-12 05:06:00,48.2,44.3,29.70,SSW,203,2.5,5.4,86,0.00,,,0.00,WUHU216HW,2013-01-12 10:06:00,
2013-01-12 05:11:00,48.2,44.3,29.70,SW,225,3.6,4.5,86,0.00,,,0.00,WUHU216HW,2013-01-12 10:11:00,
2013-01-12 05:16:00,48.4,44.4,29.70,WSW,248,2.0,4.5,86,0.00,,,0.00,WUHU216HW,2013-01-12 10:16:00,
2013-01-12 05:21:00,48.4,44.4,29.69,SW,225,3.8,3.8,86,0.00,,,0.00,WUHU216HW,2013-01-12 10:21:00,
2013-01-12 05:26:00,48.4,44.4,29.70,SSE,158,2.9,4.3,86,0.00,,,0.00,WUHU216HW,2013-01-12 10:26:00,
2013-01-12 05:31:00,48.6,44.9,29.70,WNW,293,3.1,6.0,87,0.00,,,0.00,WUHU216HW,2013-01-12 10:31:00,
2013-01-12 05:36:00,48.6,44.6,29.71,WSW,248,3.8,6.0,86,0.00,,,0.00,WUHU216HW,2013-01-12 10:36:00,
2013-01-12 05:41:00,48.6,44.6,29.70,SSE,158,1.8,5.6,86,0.00,,,0.00,WUHU216HW,2013-01-12 10:41:00,
2013-01-12 05:46:00,48.6,44.6,29.70,WSW,248,3.4,4.3,86,0.00,,,0.00,WUHU216HW,2013-01-12 10:46:00,
2013-01-12 05:51:00,48.6,44.6,29.70,West,270,1.8,3.4,86,0.00,,,0.00,WUHU216HW,2013-01-12 10:51:00,
2013-01-12 05:56:00,48.6,44.6,29.70,WSW,248,1.8,4.9,86,0.00,,,0.00,WUHU216HW,2013-01-12 10:56:00,
2013-01-12 06:01:00,48.6,44.6,29.70,SW,225,1.6,4.9,86,0.00,,,0.00,WUHU216HW,2013-01-12 11:01:00,
2013-01-12 06:06:00,48.6,44.6,29.70,SW,225,1.3,5.4,86,0.00,,,0.00,WUHU216HW,2013-01-12 11:06:00,
2013-01-12 06:11:00,48.6,44.6,29.70,SSW,203,2.5,5.4,86,0.00,,,0.00,WUHU216HW,2013-01-12 11:11:00,
2013-01-12 06:16:00,48.6,44.6,29.71,WSW,248,3.4,4.7,86,0.00,,,0.00,WUHU216HW,2013-01-12 11:16:00,
2013-01-12 06:21:00,48.6,44.9,29.71,SW,225,2.2,4.7,87,0.00,,,0.00,WUHU216HW,2013-01-12 11:21:00,
2013-01-12 06:26:00,48.8,45.1,29.71,WSW,248,4.0,4.9,87,0.00,,,0.00,WUHU216HW,2013-01-12 11:26:00,
2013-01-12 06:31:00,48.8,44.7,29.71,South,180,4.3,4.9,86,0.00,,,0.00,WUHU216HW,2013-01-12 11:31:00,
2013-01-12 06:36:00,48.8,44.7,29.71,West,270,2.5,6.7,86,0.00,,,0.00,WUHU216HW,2013-01-12 11:36:00,
2013-01-12 06:41:00,48.8,44.7,29.71,WSW,248,2.5,6.7,86,0.00,,,0.00,WUHU216HW,2013-01-12 11:41:00,
2013-01-12 06:46:00,48.8,45.1,29.71,WSW,248,1.8,4.0,87,0.00,,,0.00,WUHU216HW,2013-01-12 11:46:00,
2013-01-12 06:51:00,48.8,45.1,29.71,SW,225,1.3,4.0,87,0.00,,,0.00,WUHU216HW,2013-01-12 11:51:00,
2013-01-12 06:56:00,49.0,45.3,29.72,SW,225,1.1,5.4,87,0.00,,,0.00,WUHU216HW,2013-01-12 11:56:00,
2013-01-12 07:01:00,49.0,45.3,29.72,WSW,248,2.5,5.4,87,0.00,,,0.00,WUHU216HW,2013-01-12 12:01:00,
2013-01-12 07:06:00,49.0,45.3,29.72,SSW,203,3.4,4.0,87,0.00,,,0.00,WUHU216HW,2013-01-12 12:06:00,
2013-01-12 07:11:00,49.1,45.4,29.72,SW,225,3.4,6.0,87,0.00,,,0.00,WUHU216HW,2013-01-12 12:11:00,
2013-01-12 07:16:00,49.1,45.4,29.72,SSE,158,3.1,6.3,87,0.00,,,0.00,WUHU216HW,2013-01-12 12:16:00,
2013-01-12 07:21:00,49.1,45.4,29.73,West,270,4.0,6.3,87,0.00,,,0.00,WUHU216HW,2013-01-12 12:21:00,
2013-01-12 07:26:00,49.1,45.4,29.72,WSW,248,2.5,6.3,87,0.00,,,0.00,WUHU216HW,2013-01-12 12:26:00,
2013-01-12 07:31:00,49.1,45.4,29.72,WSW,248,3.4,4.5,87,0.00,,,0.00,WUHU216HW,2013-01-12 12:31:00,
2013-01-12 07:36:00,49.1,45.4,29.72,SW,225,2.9,5.4,87,0.00,,,0.00,WUHU216HW,2013-01-12 12:36:00,
2013-01-12 07:41:00,49.3,45.5,29.73,SW,225,3.4,5.4,87,0.00,,,0.00,WUHU216HW,2013-01-12 12:41:00,
2013-01-12 07:46:00,49.3,45.5,29.73,SSW,203,2.5,4.7,87,0.00,,,0.00,WUHU216HW,2013-01-12 12:46:00,
2013-01-12 07:51:00,49.3,45.5,29.73,WSW,248,2.9,3.4,87,0.00,,,0.00,WUHU216HW,2013-01-12 12:51:00,
2013-01-12 07:56:00,49.3,45.5,29.72,SW,225,2.9,4.0,87,0.00,,,0.00,WUHU216HW,2013-01-12 12:56:00,
2013-01-12 08:01:00,49.3,45.5,29.72,SW,225,1.8,4.0,87,0.00,,,0.00,WUHU216HW,2013-01-12 13:01:00,
2013-01-12 08:06:00,49.3,45.5,29.73,SSW,203,2.2,4.5,87,0.00,,,0.00,WUHU216HW,2013-01-12 13:06:00,
2013-01-12 08:11:00,49.3,45.5,29.73,South,180,2.2,2.7,87,0.00,,,0.00,WUHU216HW,2013-01-12 13:11:00,
2013-01-12 08:16:00,49.5,46.1,29.74,NW,315,2.5,5.1,88,0.00,,,0.00,WUHU216HW,2013-01-12 13:16:00,
2013-01-12 08:21:00,49.7,45.9,29.74,SW,225,4.0,5.1,87,0.00,,,0.00,WUHU216HW,2013-01-12 13:21:00,
2013-01-12 08:26:00,49.9,46.1,29.74,SW,225,3.1,4.0,87,0.00,,,0.00,WUHU216HW,2013-01-12 13:26:00,
2013-01-12 08:31:00,50.0,46.3,29.75,WSW,248,4.0,4.0,87,0.00,,,0.00,WUHU216HW,2013-01-12 13:31:00,
2013-01-12 08:36:00,50.4,46.6,29.75,WSW,248,1.1,4.0,87,0.00,,,0.00,WUHU216HW,2013-01-12 13:36:00,
2013-01-12 08:37:00,50.8,47.0,29.75,WSW,248,3.8,3.8,87,0.00,,,0.00,WUHU216HW,2013-01-12 13:37:00,
2013-01-12 08:41:00,50.8,47.0,29.75,WSW,248,3.8,3.8,87,0.00,,,0.00,WUHU216HW,2013-01-12 13:41:00,
2013-01-12 08:46:00,50.8,47.0,29.75,WSW,248,3.8,3.8,87,0.00,,,0.00,WUHU216HW,2013-01-12 13:46:00,
2013-01-12 09:00:00,52.6,48.4,29.76,West,270,1.8,1.8,86,0.00,,,0.00,WUHU216HW,2013-01-12 14:00:00,
2013-01-12 09:05:00,52.6,48.4,29.76,West,270,1.8,1.8,86,0.00,,,0.00,WUHU216HW,2013-01-12 14:05:00,
2013-01-12 10:00:00,54.4,49.0,29.77,SW,225,4.7,4.7,82,0.00,,,0.00,WUHU216HW,2013-01-12 15:00:00,
2013-01-12 10:05:00,54.4,49.0,29.77,WSW,248,4.0,4.7,82,0.00,,,0.00,WUHU216HW,2013-01-12 15:05:00,
2013-01-12 10:10:00,54.5,49.1,29.78,SW,225,7.8,7.8,82,0.00,,,0.00,WUHU216HW,2013-01-12 15:10:00,
2013-01-12 10:15:00,54.7,49.0,29.78,WSW,248,4.0,9.2,81,0.00,,,0.00,WUHU216HW,2013-01-12 15:15:00,
2013-01-12 10:20:00,54.9,49.5,29.79,SW,225,4.5,9.2,82,0.00,,,0.00,WUHU216HW,2013-01-12 15:20:00,
2013-01-12 10:25:00,54.9,49.1,29.78,WSW,248,4.5,7.6,81,0.00,,,0.00,WUHU216HW,2013-01-12 15:25:00,
2013-01-12 10:30:00,55.1,49.7,29.79,SW,225,4.0,7.6,82,0.00,,,0.00,WUHU216HW,2013-01-12 15:30:00,
2013-01-12 10:35:00,55.3,49.8,29.79,WSW,248,2.5,6.3,82,0.00,,,0.00,WUHU216HW,2013-01-12 15:35:00,
2013-01-12 10:40:00,55.4,49.7,29.79,WSW,248,5.1,5.6,81,0.00,,,0.00,WUHU216HW,2013-01-12 15:40:00,
2013-01-12 10:45:00,55.3,49.5,29.79,SSW,203,4.7,7.2,81,0.00,,,0.00,WUHU216HW,2013-01-12 15:45:00,
2013-01-12 10:50:00,55.3,49.5,29.79,SW,225,5.8,7.2,81,0.00,,,0.00,WUHU216HW,2013-01-12 15:50:00,
2013-01-12 10:55:00,55.3,49.5,29.79,SW,225,4.9,6.3,81,0.00,,,0.00,WUHU216HW,2013-01-12 15:55:00,
2013-01-12 11:00:00,55.4,49.3,29.79,WSW,248,3.4,6.3,80,0.00,,,0.00,WUHU216HW,2013-01-12 16:00:00,
2013-01-12 11:05:00,55.4,49.3,29.78,South,180,4.3,4.7,80,0.00,,,0.00,WUHU216HW,2013-01-12 16:05:00,
2013-01-12 11:10:00,55.6,49.9,29.78,WSW,248,2.7,4.7,81,0.00,,,0.00,WUHU216HW,2013-01-12 16:10:00,
2013-01-12 11:15:00,55.6,49.9,29.78,WSW,248,5.6,6.3,81,0.00,,,0.00,WUHU216HW,2013-01-12 16:15:00,
2013-01-12 11:20:00,55.4,49.3,29.78,WSW,248,4.7,6.3,80,0.00,,,0.00,WUHU216HW,2013-01-12 16:20:00,
2013-01-12 11:25:00,55.6,49.9,29.78,SW,225,4.7,5.4,81,0.00,,,0.00,WUHU216HW,2013-01-12 16:25:00,
2013-01-12 11:30:00,55.8,50.1,29.78,WSW,248,6.7,6.7,81,0.00,,,0.00,WUHU216HW,2013-01-12 16:30:00,
2013-01-12 11:35:00,56.2,50.4,29.77,SSE,158,3.6,7.2,81,0.00,,,0.00,WUHU216HW,2013-01-12 16:35:00,
2013-01-12 11:39:00,56.5,50.8,29.76,WSW,248,3.8,7.2,81,0.00,,,0.00,WUHU216HW,2013-01-12 16:39:00,
2013-01-12 11:44:00,56.7,51.0,29.76,WSW,248,6.9,6.9,81,0.00,,,0.00,WUHU216HW,2013-01-12 16:44:00,
2013-01-12 11:49:00,56.7,51.0,29.76,SW,225,3.6,6.9,81,0.00,,,0.00,WUHU216HW,2013-01-12 16:49:00,
2013-01-12 11:54:00,56.7,51.0,29.75,WSW,248,4.0,4.9,81,0.00,,,0.00,WUHU216HW,2013-01-12 16:54:00,
2013-01-12 11:59:00,57.1,51.3,29.75,West,270,3.6,4.0,81,0.00,,,0.00,WUHU216HW,2013-01-12 16:59:00,
2013-01-12 12:04:00,57.4,51.7,29.75,SW,225,5.4,5.8,81,0.00,,,0.00,WUHU216HW,2013-01-12 17:04:00,
2013-01-12 12:09:00,57.6,51.5,29.75,WSW,248,3.4,5.8,80,0.00,,,0.00,WUHU216HW,2013-01-12 17:09:00,
2013-01-12 12:14:00,58.0,51.5,29.75,WSW,248,4.7,5.4,79,0.00,,,0.00,WUHU216HW,2013-01-12 17:14:00,
2013-01-12 12:19:00,58.0,51.5,29.74,West,270,4.0,5.4,79,0.00,,,0.00,WUHU216HW,2013-01-12 17:19:00,
2013-01-12 12:24:00,58.0,51.5,29.75,SW,225,5.1,5.6,79,0.00,,,0.00,WUHU216HW,2013-01-12 17:24:00,
2013-01-12 12:29:00,58.3,51.8,29.74,SSW,203,4.0,5.6,79,0.00,,,0.00,WUHU216HW,2013-01-12 17:29:00,
2013-01-12 12:34:00,58.9,52.4,29.74,SW,225,5.4,6.3,79,0.00,,,0.00,WUHU216HW,2013-01-12 17:34:00,
2013-01-12 12:39:00,59.2,52.7,29.74,SSW,203,4.9,8.7,79,0.00,,,0.00,WUHU216HW,2013-01-12 17:39:00,
2013-01-12 12:44:00,59.6,52.7,29.75,SSW,203,1.1,8.7,78,0.00,,,0.00,WUHU216HW,2013-01-12 17:44:00,
2013-01-12 12:49:00,59.8,52.9,29.74,SW,225,2.9,7.6,78,0.00,,,0.00,WUHU216HW,2013-01-12 17:49:00,
2013-01-12 12:54:00,59.9,52.7,29.74,West,270,5.4,7.6,77,0.00,,,0.00,WUHU216HW,2013-01-12 17:54:00,
2013-01-12 12:59:00,59.8,52.2,29.74,WNW,293,5.6,5.6,76,0.00,,,0.00,WUHU216HW,2013-01-12 17:59:00,
2013-01-12 13:04:00,59.9,52.4,29.75,SSE,158,2.5,5.8,76,0.00,,,0.00,WUHU216HW,2013-01-12 18:04:00,
2013-01-12 13:09:00,60.1,52.2,29.75,SSE,158,2.9,5.8,75,0.00,,,0.00,WUHU216HW,2013-01-12 18:09:00,
2013-01-12 13:14:00,60.1,52.6,29.75,WSW,248,6.7,6.7,76,0.00,,,0.00,WUHU216HW,2013-01-12 18:14:00,
2013-01-12 13:19:00,60.3,52.0,29.75,WSW,248,6.3,6.7,74,0.00,,,0.00,WUHU216HW,2013-01-12 18:19:00,
2013-01-12 13:24:00,60.5,51.8,29.75,West,270,6.0,8.3,73,0.00,,,0.00,WUHU216HW,2013-01-12 18:24:00,
2013-01-12 13:29:00,60.3,52.0,29.75,SW,225,3.6,8.3,74,0.00,,,0.00,WUHU216HW,2013-01-12 18:29:00,
2013-01-12 13:34:00,60.8,52.6,29.75,WSW,248,4.3,6.3,74,0.00,,,0.00,WUHU216HW,2013-01-12 18:34:00,
2013-01-12 13:39:00,60.8,52.2,29.75,South,180,2.9,9.4,73,0.00,,,0.00,WUHU216HW,2013-01-12 18:39:00,
2013-01-12 13:44:00,60.8,52.6,29.76,SW,225,3.1,9.4,74,0.00,,,0.00,WUHU216HW,2013-01-12 18:44:00,
2013-01-12 13:49:00,60.8,52.2,29.76,SW,225,4.0,6.5,73,0.00,,,0.00,WUHU216HW,2013-01-12 18:49:00,
2013-01-12 13:54:00,60.7,52.0,29.76,WSW,248,5.4,6.7,73,0.00,,,0.00,WUHU216HW,2013-01-12 18:54:00,
2013-01-12 13:59:00,60.5,51.1,29.76,SSW,203,8.3,8.3,71,0.00,,,0.00,WUHU216HW,2013-01-12 18:59:00,
2013-01-12 14:04:00,60.5,51.8,29.76,SW,225,4.9,9.2,73,0.00,,,0.00,WUHU216HW,2013-01-12 19:04:00,
2013-01-12 14:09:00,60.8,52.2,29.76,SSW,203,4.9,9.2,73,0.00,,,0.00,WUHU216HW,2013-01-12 19:09:00,
2013-01-12 14:14:00,61.2,52.2,29.76,SW,225,2.5,5.1,72,0.00,,,0.00,WUHU216HW,2013-01-12 19:14:00,
2013-01-12 14:19:00,61.6,52.8,29.77,SW,225,5.1,5.1,73,0.00,,,0.00,WUHU216HW,2013-01-12 19:19:00,
2013-01-12 14:24:00,61.2,52.2,29.77,West,270,4.7,9.2,72,0.00,,,0.00,WUHU216HW,2013-01-12 19:24:00,
2013-01-12 14:29:00,60.5,51.8,29.77,WNW,293,3.4,9.2,73,0.00,,,0.00,WUHU216HW,2013-01-12 19:29:00,
2013-01-12 14:34:00,60.3,51.7,29.78,SSW,203,2.0,6.7,73,0.00,,,0.00,WUHU216HW,2013-01-12 19:34:00,
2013-01-12 14:39:00,60.3,52.0,29.78,SSW,203,2.7,5.8,74,0.00,,,0.00,WUHU216HW,2013-01-12 19:39:00,
2013-01-12 14:44:00,60.3,52.0,29.78,SSE,158,6.3,7.6,74,0.00,,,0.00,WUHU216HW,2013-01-12 19:44:00,
2013-01-12 14:49:00,60.1,51.8,29.78,WSW,248,4.0,8.7,74,0.00,,,0.00,WUHU216HW,2013-01-12 19:49:00,
2013-01-12 14:54:00,60.1,51.8,29.78,WSW,248,6.3,8.7,74,0.00,,,0.00,WUHU216HW,2013-01-12 19:54:00,
2013-01-12 14:59:00,60.3,52.4,29.78,WSW,248,2.5,6.3,75,0.00,,,0.00,WUHU216HW,2013-01-12 19:59:00,
2013-01-12 15:04:00,60.3,52.0,29.78,SSW,203,7.2,7.2,74,0.00,,,0.00,WUHU216HW,2013-01-12 20:04:00,
2013-01-12 15:09:00,60.5,52.6,29.77,West,270,4.3,7.2,75,0.00,,,0.00,WUHU216HW,2013-01-12 20:09:00,
2013-01-12 15:14:00,60.3,52.4,29.77,SSW,203,4.0,6.5,75,0.00,,,0.00,WUHU216HW,2013-01-12 20:14:00,
2013-01-12 15:19:00,60.1,52.2,29.78,WSW,248,4.3,6.5,75,0.00,,,0.00,WUHU216HW,2013-01-12 20:19:00,
2013-01-12 15:24:00,60.1,52.2,29.79,West,270,4.0,4.7,75,0.00,,,0.00,WUHU216HW,2013-01-12 20:24:00,
2013-01-12 15:29:00,60.1,52.2,29.79,WSW,248,2.9,4.7,75,0.00,,,0.00,WUHU216HW,2013-01-12 20:29:00,
2013-01-12 15:34:00,60.1,52.6,29.79,SE,135,4.3,4.3,76,0.00,,,0.00,WUHU216HW,2013-01-12 20:34:00,
2013-01-12 15:39:00,60.1,52.6,29.78,WSW,248,3.4,4.9,76,0.00,,,0.00,WUHU216HW,2013-01-12 20:39:00,
2013-01-12 15:44:00,59.9,52.4,29.78,South,180,1.8,4.9,76,0.00,,,0.00,WUHU216HW,2013-01-12 20:44:00,
2013-01-12 15:49:00,59.9,52.4,29.78,South,180,2.5,4.7,76,0.00,,,0.00,WUHU216HW,2013-01-12 20:49:00,
2013-01-12 15:54:00,59.9,52.4,29.77,South,180,2.2,4.5,76,0.00,,,0.00,WUHU216HW,2013-01-12 20:54:00,
2013-01-12 15:59:00,59.8,52.2,29.77,WSW,248,4.3,6.3,76,0.00,,,0.00,WUHU216HW,2013-01-12 20:59:00,
2013-01-12 16:04:00,59.6,52.4,29.77,WSW,248,5.1,6.3,77,0.00,,,0.00,WUHU216HW,2013-01-12 21:04:00,
2013-01-12 16:09:00,59.4,52.2,29.77,SW,225,2.7,5.1,77,0.00,,,0.00,WUHU216HW,2013-01-12 21:09:00,
2013-01-12 16:14:00,59.4,52.6,29.78,WSW,248,5.4,5.4,78,0.00,,,0.00,WUHU216HW,2013-01-12 21:14:00,
2013-01-12 16:19:00,59.0,52.2,29.78,ENE,68,4.5,5.4,78,0.00,,,0.00,WUHU216HW,2013-01-12 21:19:00,
2013-01-12 16:24:00,58.7,52.2,29.77,East,90,3.1,5.6,79,0.00,,,0.00,WUHU216HW,2013-01-12 21:24:00,
2013-01-12 16:29:00,58.5,52.0,29.78,WNW,293,1.6,5.6,79,0.00,,,0.00,WUHU216HW,2013-01-12 21:29:00,
2013-01-12 16:34:00,58.3,51.8,29.77,WSW,248,1.1,3.8,79,0.00,,,0.00,WUHU216HW,2013-01-12 21:34:00,
2013-01-12 16:39:00,58.0,51.5,29.77,West,270,1.1,2.5,79,0.00,,,0.00,WUHU216HW,2013-01-12 21:39:00,
2013-01-12 16:44:00,58.0,51.8,29.77,SW,225,1.1,2.5,80,0.00,,,0.00,WUHU216HW,2013-01-12 21:44:00,
2013-01-12 16:49:00,57.8,52.0,29.77,WSW,248,1.6,3.1,81,0.00,,,0.00,WUHU216HW,2013-01-12 21:49:00,
2013-01-12 16:54:00,57.6,51.9,29.77,SSW,203,2.2,4.0,81,0.00,,,0.00,WUHU216HW,2013-01-12 21:54:00,
2013-01-12 16:59:00,57.2,51.5,29.77,WSW,248,1.1,4.0,81,0.00,,,0.00,WUHU216HW,2013-01-12 21:59:00,
2013-01-12 17:04:00,57.2,51.5,29.77,WNW,293,0.9,4.0,81,0.00,,,0.00,WUHU216HW,2013-01-12 22:04:00,
2013-01-12 17:09:00,57.1,51.3,29.77,WSW,248,1.1,3.1,81,0.00,,,0.00,WUHU216HW,2013-01-12 22:09:00,
2013-01-12 17:14:00,56.9,51.4,29.77,WSW,248,3.6,3.6,82,0.00,,,0.00,WUHU216HW,2013-01-12 22:14:00,
2013-01-12 17:19:00,56.5,51.0,29.77,South,180,2.7,3.6,82,0.00,,,0.00,WUHU216HW,2013-01-12 22:19:00,
2013-01-12 17:24:00,56.5,51.4,29.78,South,180,1.3,3.6,83,0.00,,,0.00,WUHU216HW,2013-01-12 22:24:00,
2013-01-12 17:29:00,56.3,50.9,29.78,SW,225,1.3,3.6,82,0.00,,,0.00,WUHU216HW,2013-01-12 22:29:00,
2013-01-12 17:34:00,56.3,50.9,29.78,WSW,248,2.5,3.1,82,0.00,,,0.00,WUHU216HW,2013-01-12 22:34:00,
2013-01-12 17:39:00,56.2,50.7,29.78,WSW,248,0.4,3.1,82,0.00,,,0.00,WUHU216HW,2013-01-12 22:39:00,
2013-01-12 17:44:00,56.0,50.5,29.78,SW,225,1.1,2.7,82,0.00,,,0.00,WUHU216HW,2013-01-12 22:44:00,
2013-01-12 17:49:00,55.8,50.7,29.77,WSW,248,1.1,1.8,83,0.00,,,0.00,WUHU216HW,2013-01-12 22:49:00,
2013-01-12 17:54:00,55.4,50.6,29.78,WSW,248,0.7,1.8,84,0.00,,,0.00,WUHU216HW,2013-01-12 22:54:00,
2013-01-12 17:59:00,55.3,50.5,29.77,SSW,203,0.0,1.1,84,0.00,,,0.00,WUHU216HW,2013-01-12 22:59:00,
2013-01-12 18:04:00,55.1,50.3,29.77,WSW,248,0.7,1.1,84,0.00,,,0.00,WUHU216HW,2013-01-12 23:04:00,
2013-01-12 18:09:00,54.7,50.0,29.77,SSW,203,0.0,1.1,84,0.00,,,0.00,WUHU216HW,2013-01-12 23:09:00,
2013-01-12 18:14:00,54.5,50.1,29.76,SW,225,0.4,1.1,85,0.00,,,0.00,WUHU216HW,2013-01-12 23:14:00,
2013-01-12 18:19:00,54.4,50.0,29.76,SSE,158,0.0,0.7,85,0.00,,,0.00,WUHU216HW,2013-01-12 23:19:00,
2013-01-12 18:24:00,54.4,50.2,29.76,SSE,158,0.0,0.7,86,0.00,,,0.00,WUHU216HW,2013-01-12 23:24:00,
2013-01-12 18:29:00,54.2,50.0,29.76,SSE,158,0.0,0.0,86,0.00,,,0.00,WUHU216HW,2013-01-12 23:29:00,
2013-01-12 18:34:00,54.0,49.9,29.75,SSE,158,0.0,0.0,86,0.00,,,0.00,WUHU216HW,2013-01-12 23:34:00,
2013-01-12 18:39:00,53.6,49.5,29.75,SSE,158,0.0,0.0,86,0.00,,,0.00,WUHU216HW,2013-01-12 23:39:00,
2013-01-12 18:44:00,53.5,49.7,29.76,SW,225,0.7,0.9,87,0.00,,,0.00,WUHU216HW,2013-01-12 23:44:00,
2013-01-12 18:49:00,53.1,49.3,29.76,SW,225,0.4,0.9,87,0.00,,,0.00,WUHU216HW,2013-01-12 23:49:00,
2013-01-12 18:54:00,52.9,49.2,29.76,SW,225,0.0,0.4,87,0.00,,,0.00,WUHU216HW,2013-01-12 23:54:00,
2013-01-12 18:59:00,52.4,48.6,29.77,SW,225,0.0,0.4,87,0.00,,,0.00,WUHU216HW,2013-01-12 23:59:00,
2013-01-12 19:04:00,52.2,48.7,29.76,SW,225,0.0,0.0,88,0.00,,,0.00,WUHU216HW,2013-01-13 00:04:00,
2013-01-12 19:09:00,51.8,48.3,29.76,SW,225,0.0,0.0,88,0.00,,,0.00,WUHU216HW,2013-01-13 00:09:00,
2013-01-12 19:14:00,51.7,48.2,29.76,SW,225,0.0,0.0,88,0.00,,,0.00,WUHU216HW,2013-01-13 00:14:00,
2013-01-12 19:19:00,51.5,48.0,29.77,SW,225,0.0,0.0,88,0.00,,,0.00,WUHU216HW,2013-01-13 00:19:00,
2013-01-12 19:24:00,51.3,47.8,29.77,SW,225,0.0,0.0,88,0.00,,,0.00,WUHU216HW,2013-01-13 00:24:00,
2013-01-12 19:29:00,51.1,48.0,29.77,SW,225,0.0,0.0,89,0.00,,,0.00,WUHU216HW,2013-01-13 00:29:00,
2013-01-12 19:34:00,51.1,48.0,29.76,SW,225,0.0,0.0,89,0.00,,,0.00,WUHU216HW,2013-01-13 00:34:00,
2013-01-12 19:39:00,51.1,48.0,29.75,SW,225,0.0,0.0,89,0.00,,,0.00,WUHU216HW,2013-01-13 00:39:00,
2013-01-12 19:44:00,51.1,48.2,29.75,SW,225,0.0,0.0,90,0.00,,,0.00,WUHU216HW,2013-01-13 00:44:00,
2013-01-12 19:49:00,50.9,47.8,29.74,SSE,158,0.7,0.7,89,0.00,,,0.00,WUHU216HW,2013-01-13 00:49:00,
2013-01-12 19:54:00,50.8,47.6,29.74,SSE,158,0.0,0.7,89,0.00,,,0.00,WUHU216HW,2013-01-13 00:54:00,
2013-01-12 19:59:00,50.4,47.3,29.73,SE,135,0.4,0.7,89,0.00,,,0.00,WUHU216HW,2013-01-13 00:59:00,
2013-01-12 20:04:00,50.4,47.3,29.73,SE,135,0.0,0.7,89,0.00,,,0.00,WUHU216HW,2013-01-13 01:04:00,
2013-01-12 20:09:00,50.2,47.1,29.73,SE,135,0.0,0.7,89,0.00,,,0.00,WUHU216HW,2013-01-13 01:09:00,
2013-01-12 20:14:00,50.0,47.2,29.73,SE,135,0.0,0.0,90,0.00,,,0.00,WUHU216HW,2013-01-13 01:14:00,
2013-01-12 20:19:00,50.0,46.9,29.73,SE,135,0.0,0.0,89,0.00,,,0.00,WUHU216HW,2013-01-13 01:19:00,
2013-01-12 20:24:00,50.0,47.2,29.73,SE,135,0.0,0.0,90,0.00,,,0.00,WUHU216HW,2013-01-13 01:24:00,
2013-01-12 20:29:00,49.9,47.0,29.72,SE,135,0.0,0.0,90,0.00,,,0.00,WUHU216HW,2013-01-13 01:29:00,
2013-01-12 20:34:00,50.0,47.2,29.73,SE,135,0.0,0.0,90,0.00,,,0.00,WUHU216HW,2013-01-13 01:34:00,
2013-01-12 20:39:00,50.0,47.4,29.72,SE,135,0.0,0.0,91,0.00,,,0.00,WUHU216HW,2013-01-13 01:39:00,
2013-01-12 20:44:00,50.2,47.6,29.72,SE,135,0.0,0.0,91,0.00,,,0.00,WUHU216HW,2013-01-13 01:44:00,
2013-01-12 20:49:00,50.2,47.6,29.73,SE,135,0.0,0.0,91,0.00,,,0.00,WUHU216HW,2013-01-13 01:49:00,
2013-01-12 20:54:00,50.0,47.4,29.73,SW,225,0.4,1.1,91,0.00,,,0.00,WUHU216HW,2013-01-13 01:54:00,
2013-01-12 20:55:00,50.0,47.4,29.73,SW,225,0.0,0.0,91,0.00,,,0.00,WUHU216HW,2013-01-13 01:55:00,
2013-01-12 20:59:00,50.0,47.4,29.73,SW,225,0.0,1.1,91,0.00,,,0.00,WUHU216HW,2013-01-13 01:59:00,
2013-01-12 21:04:00,50.0,47.4,29.73,SW,225,0.0,0.4,91,0.00,,,0.00,WUHU216HW,2013-01-13 02:04:00,
2013-01-12 22:00:00,49.9,47.6,29.71,NNE,23,0.0,0.0,92,0.00,,,0.00,WUHU216HW,2013-01-13 03:00:00,
2013-01-12 22:05:00,49.9,47.9,29.71,NNE,23,0.0,0.4,93,0.00,,,0.00,WUHU216HW,2013-01-13 03:05:00,
2013-01-12 22:10:00,50.0,48.1,29.71,NNE,23,0.0,0.4,93,0.00,,,0.00,WUHU216HW,2013-01-13 03:10:00,
2013-01-12 22:15:00,50.2,48.3,29.71,NNE,23,0.0,0.0,93,0.00,,,0.00,WUHU216HW,2013-01-13 03:15:00,
2013-01-12 22:20:00,50.4,48.1,29.70,North,0,0.9,0.9,92,0.00,,,0.00,WUHU216HW,2013-01-13 03:20:00,
2013-01-12 22:25:00,50.6,48.9,29.69,North,0,0.7,2.5,94,0.00,,,0.00,WUHU216HW,2013-01-13 03:25:00,
2013-01-12 22:30:00,50.8,49.1,29.69,North,0,0.0,2.5,94,0.00,,,0.00,WUHU216HW,2013-01-13 03:30:00,
2013-01-12 22:35:00,51.1,49.4,29.69,North,0,0.0,1.6,94,0.00,,,0.00,WUHU216HW,2013-01-13 03:35:00,
2013-01-12 22:40:00,51.1,49.2,29.69,North,0,0.0,1.6,93,0.00,,,0.00,WUHU216HW,2013-01-13 03:40:00,
2013-01-12 22:45:00,50.9,49.0,29.69,East,90,1.3,1.3,93,0.00,,,0.00,WUHU216HW,2013-01-13 03:45:00,
2013-01-12 22:50:00,50.8,49.1,29.69,ESE,113,1.1,1.8,94,0.00,,,0.00,WUHU216HW,2013-01-13 03:50:00,
2013-01-12 22:55:00,50.4,48.4,29.69,ESE,113,1.8,1.8,93,0.01,,,0.00,WUHU216HW,2013-01-13 03:55:00,
2013-01-12 22:59:00,50.4,48.4,29.69,ESE,113,0.7,1.8,93,0.02,,,0.00,WUHU216HW,2013-01-13 03:59:00,
2013-01-12 23:04:00,50.0,48.3,29.68,North,0,1.6,2.2,94,0.03,,,0.02,WUHU216HW,2013-01-13 04:04:00,
2013-01-12 23:09:00,50.0,48.3,29.67,NNE,23,0.7,3.1,94,0.05,,,0.04,WUHU216HW,2013-01-13 04:09:00,
2013-01-12 23:14:00,50.4,48.7,29.66,North,0,0.4,3.1,94,0.06,,,0.06,WUHU216HW,2013-01-13 04:14:00,
2013-01-12 23:19:00,50.4,48.7,29.66,NNE,23,1.1,1.1,94,0.08,,,0.07,WUHU216HW,2013-01-13 04:19:00,
2013-01-12 23:24:00,50.6,48.9,29.66,NW,315,0.2,1.1,94,0.09,,,0.09,WUHU216HW,2013-01-13 04:24:00,
2013-01-12 23:29:00,50.8,49.1,29.66,NNE,23,0.4,1.1,94,0.09,,,0.09,WUHU216HW,2013-01-13 04:29:00,
2013-01-12 23:34:00,50.9,49.2,29.66,NNE,23,2.2,2.2,94,0.10,,,0.10,WUHU216HW,2013-01-13 04:34:00,
2013-01-12 23:39:00,50.8,49.1,29.66,ESE,113,2.7,2.7,94,0.13,,,0.12,WUHU216HW,2013-01-13 04:39:00,
2013-01-12 23:45:00,50.0,48.3,29.65,East,90,3.1,3.4,94,0.15,,,0.14,WUHU216HW,2013-01-13 04:45:00,
2013-01-12 23:50:00,49.3,47.6,29.65,ENE,68,2.2,3.4,94,0.17,,,0.16,WUHU216HW,2013-01-13 04:50:00,
2013-01-12 23:55:00,49.1,47.4,29.64,ENE,68,3.4,3.8,94,0.18,,,0.18,WUHU216HW,2013-01-13 04:55:00,